This is the latest recevied weather packets stored in our database for station/object HG6IEP-10. If no packets are shown the sender has not sent any weather packets the latest 10 day(s).
| Time | Temp. | Humidity | Pressure | Rain* | Wind** | Luminosity | Snow |
|---|---|---|---|---|---|---|---|
| 1777263427 | 0.56° C | 46% | 1002 hPa | - | - | - | - |
| 1777259823 | 1.67° C | 47% | 1001 hPa | - | - | - | - |
| 1777256219 | 2.78° C | 47% | 1001 hPa | - | - | - | - |
| 1777252615 | 4.44° C | 46% | 1001 hPa | - | - | - | - |
| 1777249011 | 6.11° C | 46% | 1001 hPa | - | - | - | - |
| 1777245407 | 8.33° C | 46% | 1000 hPa | - | - | - | - |
| 1777241803 | 10° C | 46% | 1000 hPa | - | - | - | - |
| 1777238199 | 12.78° C | 44% | 1000 hPa | - | - | - | - |
| 1777234595 | 15.56° C | 42% | 999 hPa | - | - | - | - |
| 1777230991 | 18.89° C | 40% | 998 hPa | - | - | - | - |
| 1777227388 | 22.78° C | 36% | 997 hPa | - | - | - | - |
| 1777223784 | 27.78° C | 30% | 996 hPa | - | - | - | - |
| 1777220180 | 29.44° C | 27% | 995 hPa | - | - | - | - |
| 1777216576 | 32.22° C | 23% | 995 hPa | - | - | - | - |
| 1777212971 | 32.22° C | 22% | 994 hPa | - | - | - | - |
| 1777209368 | 32.78° C | 18% | 994 hPa | - | - | - | - |
| 1777205763 | 32.78° C | 22% | 993 hPa | - | - | - | - |
| 1777202160 | 30° C | 26% | 993 hPa | - | - | - | - |
| 1777198556 | 27.78° C | 28% | 993 hPa | - | - | - | - |
| 1777194952 | 24.44° C | 29% | 992 hPa | - | - | - | - |
| 1777191348 | 21.67° C | 32% | 991 hPa | - | - | - | - |
| 1777187744 | 18.33° C | 34% | 990 hPa | - | - | - | - |
| 1777184140 | 12.78° C | 41% | 989 hPa | - | - | - | - |
| 1777180536 | 7.78° C | 47% | 988 hPa | - | - | - | - |
| 1777176932 | 6.11° C | 49% | 987 hPa | - | - | - | - |
* Rain since midnight (hover to see other rain measurements)
** Current wind speed in m/s (hover to see current wind gust speed)